Create Tblcommutelog Verified Points Advance Search
| # | Trip ID | Id Commuter | Trip Date | Trip Num | Current Lat | Current Lng | Delta Distance | Current Time | Activity | Activity Confidence | Current Speed | |
|---|---|---|---|---|---|---|---|---|---|---|---|---|
| 68921 | 250507_781276_16648951_1734 | 781276 | (not set) | (not set) | 38.877823390103 | -77.036767657918 | 0.7331 | 2025-05-07 21:43:57.355 | on_foot | 100 | 7.9617692025714 | |
| 68922 | 250507_775339_16652873_1634 | 775339 | (not set) | (not set) | 38.960431250838 | -77.452397546059 | 25.6887 | 2025-05-07 21:43:58.545 | in_vehicle | 100 | 5.6729281965542 | |
| 68923 | 250507_784627_16652599_1716 | 784627 | (not set) | (not set) | 38.999069222434 | -77.0975800198 | 7.8584 | 2025-05-07 21:43:58.747 | unknown | 100 | -0.44703925898772 | |
| 68924 | 250507_784627_16652599_1716 | 784627 | (not set) | (not set) | 39.013601501687 | -77.099577008816 | 7.8584 | 2025-05-07 21:43:58.752 | unknown | 100 | -0.44703925898772 | |
| 68925 | 250507_784208_16652093_1723 | 784208 | (not set) | (not set) | 38.746971059331 | -77.134304059739 | 3.7308 | 2025-05-07 21:44:00.255 | in_vehicle | 100 | 4.0322941160693 | |
| 68926 | 250507_784160_16652033_1538 | 784160 | (not set) | (not set) | 38.294702150179 | -77.460832587631 | 54.5582 | 2025-05-07 21:44:00.271 | in_vehicle | 100 | 5.0023693080726 | |
| 68927 | 250507_776453_16643986_1744 | 776453 | (not set) | (not set) | 38.900953042357 | -77.043576948416 | 0 | 2025-05-07 21:44:00.281 | unknown | 100 | 0.51409514783588 | |
| 68928 | 250507_776453_16643986_1744 | 776453 | (not set) | (not set) | 38.900953042357 | -77.043576948416 | 0 | 2025-05-07 21:44:00.331 | unknown | 100 | 0.51409514783588 | |
| 68929 | 250507_784637_16652610_1735 | 784637 | (not set) | (not set) | 38.920874763626 | -77.062471758406 | 1.4666 | 2025-05-07 21:44:02.222 | on_foot | 100 | 1.4752295546595 | |
| 68930 | 250507_774352_16641774_1707 | 774352 | (not set) | (not set) | 38.987552129543 | -77.09590315266 | 3.9637 | 2025-05-07 21:44:03.251 | on_foot | 100 | 0.54538789596502 | |
| 68931 | 250507_784389_16652315_1656 | 784389 | (not set) | (not set) | 39.075809458954 | -77.566167856061 | 36.0276 | 2025-05-07 21:44:03.39 | in_vehicle | 100 | 11.730310155838 | |
| 68932 | 250507_779684_16647372_1640 | 779684 | (not set) | (not set) | 39.42541876512 | -77.00946030755 | 30.2302 | 2025-05-07 21:44:03.997 | still | 33 | -0.44703925898772 | |
| 68933 | 250507_779684_16647372_1640 | 779684 | (not set) | (not set) | 39.42476861093 | -77.009273268277 | 30.4395 | 2025-05-07 21:44:04.093 | still | 33 | 8.8781996834962 | |
| 68934 | 250507_776960_16644495_1711 | 776960 | (not set) | (not set) | 39.139829087827 | -76.697405763178 | 25.4653 | 2025-05-07 21:44:04.275 | still | 33 | 16.893613597146 | |
| 68935 | 250507_783145_16650872_1730 | 783145 | (not set) | (not set) | 39.13617325 | -77.1522522 | 5.7608 | 2025-05-07 21:44:04.683 | in_vehicle | 100 | 11.269859719081 | |
| 68936 | 250507_774579_16652532_1727 | 774579 | (not set) | (not set) | 38.973969141989 | -76.842229636458 | 11.0943 | 2025-05-07 21:44:06.343 | still | 33 | -0.44703925898772 | |
| 68937 | 250507_781975_16649666_1652 | 781975 | (not set) | (not set) | 38.71580476547 | -77.216074462564 | 19.4277 | 2025-05-07 21:44:06.368 | in_vehicle | 100 | 14.779117902134 | |
| 68938 | 250507_783396_16651128_1739 | 783396 | (not set) | (not set) | 39.3092905 | -76.6177401 | 0.558 | 2025-05-07 21:44:06.373 | on_bicycle | 100 | 2.1010845172423 | |
| 68939 | 250507_781117_0_1725 | 781117 | (not set) | (not set) | 38.89706022476 | -77.023944685993 | 2.3803 | 2025-05-07 21:44:06.537 | in_vehicle | 100 | 0 | |
| 68940 | 250507_781117_0_1725 | 781117 | (not set) | (not set) | 38.89706022476 | -77.023944685993 | 2.3803 | 2025-05-07 21:44:06.562 | in_vehicle | 100 | 0 |